Time;durP1;ratioP1;P1;durP2;ratioP2;P2;SDS_P1;SDS_P2;PMS_P1;PMS_P2;Temp;Humidity;BMP_temperature;BMP_pressure;BME280_temperature;BME280_humidity;BME280_pressure;Samples;Min_cycle;Max_cycle;Signal;HPM_P1;HPM_P2
2022/03/03 00:00:11;;;;;;;;;;;1.50;99.90;;;;;;5013862;28;19959;-76
2022/03/03 00:02:36;;;;;;;;;;;1.50;99.90;;;;;;4978526;28;19929;-76
2022/03/03 00:05:03;;;;;;;;;;;1.60;99.90;;;;;;4994813;28;20022;-75
2022/03/03 00:07:28;;;;;;;;;;;1.50;99.90;;;;;;4972574;28;19974;-76
2022/03/03 00:09:54;;;;;;;;;;;1.40;99.90;;;;;;4981251;28;20362;-76
2022/03/03 00:12:19;;;;;;;;;;;1.40;99.90;;;;;;4980983;28;20004;-76
2022/03/03 00:14:45;;;;;;;;;;;1.40;99.90;;;;;;4966245;28;19921;-76
2022/03/03 00:17:11;;;;;;;;;;;1.30;99.90;;;;;;4981734;28;19984;-76
2022/03/03 00:19:37;;;;;;;;;;;1.30;99.90;;;;;;4975046;28;20395;-76
2022/03/03 00:22:02;;;;;;;;;;;1.20;99.90;;;;;;4979556;28;20438;-76
2022/03/03 00:24:28;;;;;;;;;;;1.10;99.90;;;;;;4963721;28;19973;-76
2022/03/03 00:26:54;;;;;;;;;;;1.10;99.90;;;;;;4962264;28;19965;-76
2022/03/03 00:29:19;;;;;;;;;;;1.10;99.90;;;;;;4962923;28;20020;-75
2022/03/03 00:31:45;;;;;;;;;;;1.00;99.90;;;;;;4969861;28;19971;-76
2022/03/03 00:34:10;;;;;;;;;;;1.00;99.90;;;;;;4966548;28;19922;-76
2022/03/03 00:36:36;;;;;;;;;;;1.00;99.90;;;;;;4961599;28;19925;-76
2022/03/03 00:39:02;;;;;;;;;;;1.00;99.90;;;;;;4961545;28;20186;-76
2022/03/03 00:41:28;;;;;;;;;;;1.00;99.90;;;;;;4964268;28;19933;-75
2022/03/03 00:43:54;;;;;;;;;;;1.00;99.90;;;;;;4972939;28;19922;-76
2022/03/03 00:46:19;;;;;;;;;;;1.00;99.90;;;;;;4997144;28;19932;-76
2022/03/03 00:48:45;;;;;;;;;;;1.00;99.90;;;;;;5015428;28;19906;-75
2022/03/03 00:51:10;;;;;;;;;;;0.90;99.90;;;;;;5001865;28;19976;-75
2022/03/03 00:53:37;;;;;;;;;;;0.90;99.90;;;;;;4995494;28;19928;-76
2022/03/03 00:56:03;;;;;;;;;;;0.90;99.90;;;;;;4996529;28;19928;-76
2022/03/03 00:58:29;;;;;;;;;;;0.80;99.90;;;;;;4996102;28;19921;-75
2022/03/03 01:00:54;;;;;;;;;;;0.70;99.90;;;;;;4997190;28;19926;-76
2022/03/03 01:03:20;;;;;;;;;;;0.70;99.90;;;;;;4977198;28;19922;-76
2022/03/03 01:05:46;;;;;;;;;;;0.70;99.90;;;;;;4993130;28;19975;-76
2022/03/03 01:08:12;;;;;;;;;;;0.70;99.90;;;;;;4982939;28;20011;-76
2022/03/03 01:10:39;;;;;;;;;;;0.60;99.90;;;;;;4996516;28;19921;-76
2022/03/03 01:13:04;;;;;;;;;;;0.60;99.90;;;;;;4994626;28;19922;-76
2022/03/03 01:15:30;;;;;;;;;;;0.60;99.90;;;;;;4987815;28;19987;-76
2022/03/03 01:17:58;;;;;;;;;;;0.60;99.90;;;;;;4993894;28;19922;-76
2022/03/03 01:20:24;;;;;;;;;;;0.40;99.90;;;;;;4993069;28;19976;-76
2022/03/03 01:22:50;;;;;;;;;;;0.50;99.90;;;;;;4963457;28;20020;-76
2022/03/03 01:25:15;;;;;;;;;;;0.40;99.90;;;;;;4990594;28;19930;-75
2022/03/03 01:27:41;;;;;;;;;;;0.30;99.90;;;;;;4978875;28;19960;-76
2022/03/03 01:30:07;;;;;;;;;;;0.20;99.90;;;;;;4996263;28;19988;-76
2022/03/03 01:32:33;;;;;;;;;;;0.10;99.90;;;;;;4995449;28;19999;-76
2022/03/03 01:34:58;;;;;;;;;;;0.10;99.90;;;;;;4992396;28;19929;-76
2022/03/03 01:37:24;;;;;;;;;;;0.10;99.90;;;;;;4960665;28;20430;-76
2022/03/03 01:39:49;;;;;;;;;;;0.10;99.90;;;;;;4992734;28;20020;-76
2022/03/03 01:42:16;;;;;;;;;;;0.20;99.90;;;;;;4993120;28;20303;-76
2022/03/03 01:44:43;;;;;;;;;;;0.20;99.90;;;;;;4976356;28;20403;-76
2022/03/03 01:47:15;;;;;;;;;;;0.10;99.90;;;;;;4992438;28;19929;-76
2022/03/03 01:49:41;;;;;;;;;;;0.20;99.90;;;;;;4970270;28;19921;-76
2022/03/03 01:52:06;;;;;;;;;;;0.10;99.90;;;;;;4978732;28;19929;-75
2022/03/03 01:54:32;;;;;;;;;;;0.10;99.90;;;;;;4980097;28;20022;-76
2022/03/03 01:56:57;;;;;;;;;;;-0.10;99.90;;;;;;4995347;28;20008;-76
2022/03/03 01:59:23;;;;;;;;;;;-0.20;99.90;;;;;;5012125;28;20052;-76
2022/03/03 02:01:49;;;;;;;;;;;-0.30;99.90;;;;;;4992534;28;19973;-75
2022/03/03 02:04:15;;;;;;;;;;;-0.50;99.90;;;;;;4973408;28;20302;-75
2022/03/03 02:06:40;;;;;;;;;;;-0.60;99.90;;;;;;4993810;28;19929;-75
2022/03/03 02:09:06;;;;;;;;;;;-0.70;99.90;;;;;;4995586;28;19921;-76
2022/03/03 02:11:31;;;;;;;;;;;-0.80;99.90;;;;;;4981037;28;19929;-76
2022/03/03 02:13:57;;;;;;;;;;;-0.90;99.90;;;;;;4994729;28;19929;-75
2022/03/03 02:16:24;;;;;;;;;;;-0.90;99.90;;;;;;4978812;28;19972;-75
2022/03/03 02:18:49;;;;;;;;;;;-0.90;99.90;;;;;;4979327;28;19972;-76
2022/03/03 02:21:15;;;;;;;;;;;-1.00;99.90;;;;;;4993964;28;20319;-75
2022/03/03 02:23:41;;;;;;;;;;;-0.90;99.90;;;;;;4978706;28;19928;-75
2022/03/03 02:26:08;;;;;;;;;;;-0.90;99.90;;;;;;4994991;28;20303;-76
2022/03/03 02:28:34;;;;;;;;;;;-0.90;99.90;;;;;;4995398;28;19922;-75
2022/03/03 02:30:59;;;;;;;;;;;-0.80;99.90;;;;;;4985537;28;20021;-75
2022/03/03 02:33:25;;;;;;;;;;;-0.80;99.90;;;;;;4972656;28;19926;-75
2022/03/03 02:35:51;;;;;;;;;;;-0.70;99.90;;;;;;4995026;28;19979;-75
2022/03/03 02:38:16;;;;;;;;;;;-0.70;99.90;;;;;;4992007;28;19944;-75
2022/03/03 02:40:44;;;;;;;;;;;-0.70;99.90;;;;;;4994637;28;19930;-75
2022/03/03 02:43:13;;;;;;;;;;;-0.70;99.90;;;;;;4991797;28;19965;-76
2022/03/03 02:45:38;;;;;;;;;;;-0.80;99.90;;;;;;4991347;28;19995;-75
2022/03/03 02:48:04;;;;;;;;;;;-0.80;99.90;;;;;;4991678;28;19922;-75
2022/03/03 02:50:29;;;;;;;;;;;-0.90;99.90;;;;;;4991300;28;20308;-76
2022/03/03 02:52:57;;;;;;;;;;;-0.90;99.90;;;;;;4992434;28;19973;-75
2022/03/03 02:55:22;;;;;;;;;;;-0.90;99.90;;;;;;4994363;28;20083;-75
2022/03/03 02:57:54;;;;;;;;;;;-0.80;99.90;;;;;;4995075;28;20019;-76
2022/03/03 03:00:25;;;;;;;;;;;-0.80;99.90;;;;;;4990643;28;20681;-75
2022/03/03 03:02:51;;;;;;;;;;;-0.60;99.90;;;;;;4975275;28;20284;-75
2022/03/03 03:05:17;;;;;;;;;;;-0.50;99.90;;;;;;4994952;28;19921;-75
2022/03/03 03:07:45;;;;;;;;;;;-0.40;99.90;;;;;;4994757;28;19922;-76
2022/03/03 03:10:11;;;;;;;;;;;-0.40;99.90;;;;;;4975834;28;19930;-76
2022/03/03 03:12:39;;;;;;;;;;;-0.30;99.90;;;;;;4993888;28;19928;-75
2022/03/03 03:15:05;;;;;;;;;;;-0.30;99.90;;;;;;4979104;28;19937;-75
2022/03/03 03:17:30;;;;;;;;;;;-0.30;99.90;;;;;;4994531;28;19932;-75
2022/03/03 03:19:56;;;;;;;;;;;-0.30;99.90;;;;;;4994280;28;19921;-76
2022/03/03 03:22:22;;;;;;;;;;;-0.40;99.90;;;;;;4991389;28;19926;-75
2022/03/03 03:24:47;;;;;;;;;;;-0.40;99.90;;;;;;4974389;28;19937;-75
2022/03/03 03:27:13;;;;;;;;;;;-0.40;99.90;;;;;;4996111;28;19964;-75
2022/03/03 03:29:38;;;;;;;;;;;-0.30;99.90;;;;;;4985353;28;19922;-76
2022/03/03 03:32:04;;;;;;;;;;;-0.40;99.90;;;;;;4979203;28;19922;-75
2022/03/03 03:34:29;;;;;;;;;;;-0.50;99.90;;;;;;4985434;28;19980;-77
2022/03/03 03:36:55;;;;;;;;;;;-0.60;99.90;;;;;;4986110;28;20021;-76
2022/03/03 03:39:21;;;;;;;;;;;-0.60;99.90;;;;;;4979545;28;19921;-75
2022/03/03 03:41:47;;;;;;;;;;;-0.80;99.90;;;;;;4998259;28;19933;-76
2022/03/03 03:44:13;;;;;;;;;;;-0.90;99.90;;;;;;4987178;28;19926;-75
2022/03/03 03:46:38;;;;;;;;;;;-0.90;99.90;;;;;;4973547;28;19928;-74
2022/03/03 03:49:07;;;;;;;;;;;-0.80;99.90;;;;;;4998320;28;20043;-74
2022/03/03 03:51:32;;;;;;;;;;;-0.80;99.90;;;;;;4998214;28;19928;-74
2022/03/03 03:53:58;;;;;;;;;;;-0.70;99.90;;;;;;4973448;28;19922;-74
2022/03/03 03:56:23;;;;;;;;;;;-0.70;99.90;;;;;;4987023;28;20384;-74
2022/03/03 03:58:50;;;;;;;;;;;-0.70;99.90;;;;;;4997836;28;19937;-74
2022/03/03 04:01:16;;;;;;;;;;;-0.60;99.90;;;;;;4998292;28;20072;-74
2022/03/03 04:03:41;;;;;;;;;;;-0.60;99.90;;;;;;4991971;28;20453;-74
2022/03/03 04:06:07;;;;;;;;;;;-0.60;99.90;;;;;;5013935;28;20388;-74
2022/03/03 04:08:32;;;;;;;;;;;-0.50;99.90;;;;;;4971378;28;19922;-74
2022/03/03 04:10:58;;;;;;;;;;;-0.50;99.90;;;;;;4994483;28;20384;-74
2022/03/03 04:13:23;;;;;;;;;;;-0.50;99.90;;;;;;4964962;28;19922;-73
2022/03/03 04:15:49;;;;;;;;;;;-0.50;99.90;;;;;;4978091;28;19925;-74
2022/03/03 04:18:15;;;;;;;;;;;-0.40;99.90;;;;;;4962045;28;20396;-74
2022/03/03 04:20:40;;;;;;;;;;;-0.40;99.90;;;;;;4963114;28;19995;-74
2022/03/03 04:23:08;;;;;;;;;;;-0.40;99.90;;;;;;4962177;28;19928;-74
2022/03/03 04:25:34;;;;;;;;;;;-0.50;99.90;;;;;;4981295;28;19921;-73
2022/03/03 04:28:02;;;;;;;;;;;-0.30;99.90;;;;;;4978382;28;19921;-74
2022/03/03 04:30:27;;;;;;;;;;;-0.40;99.90;;;;;;4962120;28;19933;-74
2022/03/03 04:32:56;;;;;;;;;;;-0.40;99.90;;;;;;4970399;28;19921;-74
2022/03/03 04:35:22;;;;;;;;;;;-0.40;99.90;;;;;;4962881;28;19922;-74
2022/03/03 04:37:47;;;;;;;;;;;-0.50;99.90;;;;;;4994487;28;20012;-74
2022/03/03 04:40:13;;;;;;;;;;;-0.40;99.90;;;;;;4961487;28;20388;-74
2022/03/03 04:42:38;;;;;;;;;;;-0.50;99.90;;;;;;4961382;28;19926;-74
2022/03/03 04:45:04;;;;;;;;;;;-0.50;99.90;;;;;;4980400;28;20012;-74
2022/03/03 04:47:30;;;;;;;;;;;-0.50;99.90;;;;;;4981329;28;19926;-74
2022/03/03 04:49:55;;;;;;;;;;;-0.50;99.90;;;;;;5010035;28;19928;-74
2022/03/03 04:52:21;;;;;;;;;;;-0.50;99.90;;;;;;4961355;28;19922;-74
2022/03/03 04:54:47;;;;;;;;;;;-0.40;99.90;;;;;;4977494;28;19921;-74
2022/03/03 04:57:12;;;;;;;;;;;-0.50;99.90;;;;;;4967170;28;19929;-74
2022/03/03 04:59:38;;;;;;;;;;;-0.40;99.90;;;;;;4961461;28;19928;-75
2022/03/03 05:02:06;;;;;;;;;;;-0.30;99.90;;;;;;4963987;28;20420;-75
2022/03/03 05:04:32;;;;;;;;;;;-0.30;99.90;;;;;;4965987;28;20008;-74
2022/03/03 05:07:00;;;;;;;;;;;-0.30;99.90;;;;;;4986743;28;20308;-74
2022/03/03 05:09:25;;;;;;;;;;;-0.20;99.90;;;;;;4986965;28;19922;-74
2022/03/03 05:11:51;;;;;;;;;;;-0.20;99.90;;;;;;4961239;28;19921;-74
2022/03/03 05:14:16;;;;;;;;;;;-0.20;99.90;;;;;;4960762;28;19929;-74
2022/03/03 05:16:42;;;;;;;;;;;-0.20;99.90;;;;;;4969783;28;19957;-74
2022/03/03 05:19:07;;;;;;;;;;;-0.10;99.90;;;;;;4973014;28;20395;-74
2022/03/03 05:21:33;;;;;;;;;;;-0.10;99.90;;;;;;4969046;28;19932;-74
2022/03/03 05:23:59;;;;;;;;;;;-0.10;99.90;;;;;;4979598;28;20422;-74
2022/03/03 05:26:25;;;;;;;;;;;-0.10;99.90;;;;;;4961208;28;19922;-74
2022/03/03 05:28:50;;;;;;;;;;;-0.10;99.90;;;;;;5007904;28;19968;-74
2022/03/03 05:31:16;;;;;;;;;;;-0.10;99.90;;;;;;4963097;28;19925;-74
2022/03/03 05:33:43;;;;;;;;;;;-0.20;99.90;;;;;;4971622;28;19922;-73
2022/03/03 05:36:09;;;;;;;;;;;-0.20;99.90;;;;;;4971077;28;19928;-74
2022/03/03 05:38:35;;;;;;;;;;;-0.20;99.90;;;;;;4993712;28;19921;-75
2022/03/03 05:41:01;;;;;;;;;;;-0.20;99.90;;;;;;4960603;28;19933;-75
2022/03/03 05:43:27;;;;;;;;;;;-0.20;99.90;;;;;;4960918;28;20274;-75
2022/03/03 05:45:55;;;;;;;;;;;-0.20;99.90;;;;;;4995062;28;19997;-75
2022/03/03 05:48:21;;;;;;;;;;;-0.10;99.90;;;;;;4979617;28;19921;-75
2022/03/03 05:50:47;;;;;;;;;;;-0.20;99.90;;;;;;4994776;28;19921;-74
2022/03/03 05:53:13;;;;;;;;;;;-0.20;99.90;;;;;;5012102;28;19928;-75
2022/03/03 05:55:44;;;;;;;;;;;-0.10;99.90;;;;;;4963980;28;20383;-74
2022/03/03 05:58:19;;;;;;;;;;;-0.10;99.90;;;;;;4968106;28;19922;-74
2022/03/03 06:00:46;;;;;;;;;;;-0.10;99.90;;;;;;4978998;28;19925;-75
2022/03/03 06:03:17;;;;;;;;;;;-0.10;99.90;;;;;;4991478;28;20407;-74
2022/03/03 06:05:45;;;;;;;;;;;-0.10;99.90;;;;;;4975842;28;20252;-75
2022/03/03 06:08:15;;;;;;;;;;;-0.10;99.90;;;;;;4989188;28;19921;-74
2022/03/03 06:10:44;;;;;;;;;;;0.00;99.90;;;;;;4964353;28;19928;-74
2022/03/03 06:13:15;;;;;;;;;;;0.00;99.90;;;;;;4995513;28;19932;-73
2022/03/03 06:15:42;;;;;;;;;;;-0.10;99.90;;;;;;5011922;28;20004;-75
2022/03/03 06:18:08;;;;;;;;;;;-0.10;99.90;;;;;;4989668;28;19922;-75
2022/03/03 06:20:34;;;;;;;;;;;-0.10;99.90;;;;;;4991286;28;20280;-76
2022/03/03 06:22:59;;;;;;;;;;;-0.20;99.90;;;;;;5008068;28;19930;-75
2022/03/03 06:25:26;;;;;;;;;;;-0.10;99.90;;;;;;4962801;28;19929;-76
2022/03/03 06:27:52;;;;;;;;;;;-0.10;99.90;;;;;;4964694;28;19928;-76
2022/03/03 06:30:17;;;;;;;;;;;-0.20;99.90;;;;;;4979765;28;19977;-76
2022/03/03 06:32:46;;;;;;;;;;;-0.10;99.90;;;;;;4978685;28;19979;-74
2022/03/03 06:35:11;;;;;;;;;;;-0.10;99.90;;;;;;4979048;28;20006;-75
2022/03/03 06:37:37;;;;;;;;;;;-0.10;99.90;;;;;;5011598;28;19942;-75
2022/03/03 06:40:02;;;;;;;;;;;-0.10;99.90;;;;;;4990025;28;20017;-75
2022/03/03 06:42:29;;;;;;;;;;;-0.10;99.90;;;;;;4994940;28;19926;-75
2022/03/03 06:44:54;;;;;;;;;;;-0.10;99.90;;;;;;4994254;28;19925;-77
2022/03/03 06:47:21;;;;;;;;;;;-0.10;99.90;;;;;;4989332;28;19964;-77
2022/03/03 06:49:47;;;;;;;;;;;-0.10;99.90;;;;;;4980512;28;19944;-77
2022/03/03 06:52:14;;;;;;;;;;;-0.10;99.90;;;;;;4995971;28;20269;-77
2022/03/03 06:54:42;;;;;;;;;;;-0.10;99.90;;;;;;4996821;28;19932;-77
2022/03/03 06:57:08;;;;;;;;;;;-0.10;99.90;;;;;;4996604;28;19921;-76
2022/03/03 06:59:37;;;;;;;;;;;-0.10;99.90;;;;;;4996467;28;19921;-77
2022/03/03 07:02:02;;;;;;;;;;;-0.10;99.90;;;;;;4995927;28;19933;-77
2022/03/03 07:04:29;;;;;;;;;;;-0.10;99.90;;;;;;4995601;28;19922;-77
2022/03/03 07:06:55;;;;;;;;;;;0.00;99.90;;;;;;4997249;28;20377;-77
2022/03/03 07:09:21;;;;;;;;;;;0.10;99.90;;;;;;4996842;28;19972;-77
2022/03/03 07:11:48;;;;;;;;;;;0.10;99.90;;;;;;4997291;28;20331;-77
2022/03/03 07:14:13;;;;;;;;;;;0.10;99.90;;;;;;4980806;28;19972;-77
2022/03/03 07:16:54;;;;;;;;;;;0.10;99.90;;;;;;4984683;28;19925;-77
2022/03/03 07:19:26;;;;;;;;;;;0.20;99.90;;;;;;4984901;28;19925;-78
2022/03/03 07:22:10;;;;;;;;;;;0.10;99.90;;;;;;4983589;28;20013;-79
2022/03/03 07:24:46;;;;;;;;;;;0.30;99.90;;;;;;4992084;28;19922;-78
2022/03/03 07:27:16;;;;;;;;;;;0.30;99.90;;;;;;4976579;28;20008;-76
2022/03/03 07:29:42;;;;;;;;;;;0.30;99.90;;;;;;5000970;28;19993;-76
2022/03/03 07:32:08;;;;;;;;;;;0.40;99.90;;;;;;5014222;28;20059;-76
2022/03/03 07:34:34;;;;;;;;;;;0.40;99.90;;;;;;5014355;28;19975;-76
2022/03/03 07:37:04;;;;;;;;;;;0.40;99.90;;;;;;5014234;28;19931;-76
2022/03/03 07:39:37;;;;;;;;;;;0.50;99.90;;;;;;5014044;28;19925;-76
2022/03/03 07:42:03;;;;;;;;;;;0.50;99.90;;;;;;5014389;28;20269;-75
2022/03/03 07:44:28;;;;;;;;;;;0.60;99.90;;;;;;4997638;28;19968;-76
2022/03/03 07:46:55;;;;;;;;;;;0.70;99.90;;;;;;4998123;28;19925;-76
2022/03/03 07:49:21;;;;;;;;;;;0.70;99.90;;;;;;5014095;28;19970;-76
2022/03/03 07:51:48;;;;;;;;;;;0.80;99.90;;;;;;4997749;28;19922;-76
2022/03/03 07:54:13;;;;;;;;;;;0.80;99.90;;;;;;5018288;28;19971;-76
2022/03/03 07:56:41;;;;;;;;;;;0.90;99.90;;;;;;4997814;28;19924;-76
2022/03/03 07:59:10;;;;;;;;;;;1.00;99.90;;;;;;5030635;28;20295;-76
2022/03/03 08:01:37;;;;;;;;;;;1.00;99.90;;;;;;5013994;28;19979;-75
2022/03/03 08:04:03;;;;;;;;;;;1.10;99.90;;;;;;5013987;28;20268;-76
2022/03/03 08:06:30;;;;;;;;;;;1.20;99.90;;;;;;5014168;28;20005;-76
2022/03/03 08:08:58;;;;;;;;;;;1.30;99.90;;;;;;5014215;28;19975;-76
2022/03/03 08:11:24;;;;;;;;;;;1.30;99.90;;;;;;5013918;28;20111;-76
2022/03/03 08:13:52;;;;;;;;;;;1.40;99.90;;;;;;5015925;28;19936;-76
2022/03/03 08:16:18;;;;;;;;;;;1.50;99.90;;;;;;5017337;28;19923;-76
2022/03/03 08:18:46;;;;;;;;;;;1.60;99.90;;;;;;5033255;28;22591;-75
2022/03/03 08:21:15;;;;;;;;;;;1.60;99.90;;;;;;5017455;28;19928;-76
2022/03/03 08:23:42;;;;;;;;;;;1.70;99.90;;;;;;5000652;28;19921;-76
2022/03/03 08:26:12;;;;;;;;;;;1.90;99.90;;;;;;5017083;28;19960;-75
2022/03/03 08:28:38;;;;;;;;;;;2.00;99.90;;;;;;5017110;28;20217;-76
2022/03/03 08:31:05;;;;;;;;;;;2.20;99.90;;;;;;5017101;28;19925;-75
2022/03/03 08:33:37;;;;;;;;;;;2.30;99.90;;;;;;5016948;28;19947;-76
2022/03/03 08:36:06;;;;;;;;;;;2.30;99.90;;;;;;5016906;28;20376;-76
2022/03/03 08:38:36;;;;;;;;;;;2.40;99.90;;;;;;5017279;28;20016;-76
2022/03/03 08:41:02;;;;;;;;;;;2.50;99.90;;;;;;5016876;28;19921;-76
2022/03/03 08:43:31;;;;;;;;;;;2.60;99.90;;;;;;5016723;28;19964;-76
2022/03/03 08:46:02;;;;;;;;;;;2.70;99.90;;;;;;5016572;28;19921;-76
2022/03/03 08:48:30;;;;;;;;;;;2.80;99.90;;;;;;5017059;28;19921;-76
2022/03/03 08:50:59;;;;;;;;;;;2.90;99.90;;;;;;5017013;28;20011;-75
2022/03/03 08:53:25;;;;;;;;;;;3.00;99.90;;;;;;5017173;28;19921;-76
2022/03/03 08:55:53;;;;;;;;;;;3.10;99.90;;;;;;5016646;28;19928;-76
2022/03/03 08:58:19;;;;;;;;;;;3.10;99.90;;;;;;5016796;28;19940;-75
2022/03/03 09:00:48;;;;;;;;;;;3.20;99.90;;;;;;5016547;28;19925;-75
2022/03/03 09:03:15;;;;;;;;;;;3.30;99.90;;;;;;5000173;28;19979;-76
2022/03/03 09:05:41;;;;;;;;;;;3.40;99.90;;;;;;5016660;28;19921;-77
2022/03/03 09:08:06;;;;;;;;;;;3.50;99.90;;;;;;5016832;28;19921;-76
2022/03/03 09:10:32;;;;;;;;;;;3.60;99.90;;;;;;5000254;28;19921;-76
2022/03/03 09:12:57;;;;;;;;;;;3.70;99.90;;;;;;5000423;28;19925;-77
2022/03/03 09:15:23;;;;;;;;;;;3.80;99.90;;;;;;4999946;28;19921;-76
2022/03/03 09:17:49;;;;;;;;;;;3.90;99.90;;;;;;5000358;28;19975;-77
2022/03/03 09:20:15;;;;;;;;;;;4.50;99.90;;;;;;5000389;28;19932;-77
2022/03/03 09:22:41;;;;;;;;;;;5.50;99.90;;;;;;5016975;28;19956;-77
2022/03/03 09:25:07;;;;;;;;;;;6.50;98.90;;;;;;5016371;28;19921;-77
2022/03/03 09:27:32;;;;;;;;;;;7.20;89.10;;;;;;5017512;28;19971;-77
2022/03/03 09:30:01;;;;;;;;;;;7.60;80.70;;;;;;5017980;28;19921;-77
2022/03/03 09:32:27;;;;;;;;;;;7.90;76.30;;;;;;5001355;28;19921;-77
2022/03/03 09:34:52;;;;;;;;;;;8.10;76.10;;;;;;5001157;28;20345;-77
2022/03/03 09:37:18;;;;;;;;;;;8.50;78.60;;;;;;5001156;28;19921;-77
2022/03/03 09:39:45;;;;;;;;;;;8.80;81.60;;;;;;5001762;28;19929;-78
2022/03/03 09:42:13;;;;;;;;;;;9.20;76.10;;;;;;5001200;28;20379;-77
2022/03/03 09:44:39;;;;;;;;;;;9.40;68.50;;;;;;5000775;28;20307;-77
2022/03/03 09:47:05;;;;;;;;;;;9.50;64.90;;;;;;5017180;28;19921;-78
2022/03/03 09:49:30;;;;;;;;;;;9.60;65.60;;;;;;5000964;28;19925;-77
2022/03/03 09:51:56;;;;;;;;;;;9.70;67.20;;;;;;5017327;28;19928;-77
2022/03/03 09:54:22;;;;;;;;;;;9.80;65.00;;;;;;5000450;28;19952;-78
2022/03/03 09:56:47;;;;;;;;;;;9.90;63.60;;;;;;5017098;28;19921;-77
2022/03/03 09:59:15;;;;;;;;;;;10.10;65.40;;;;;;5000655;28;20303;-77
2022/03/03 10:01:41;;;;;;;;;;;10.30;63.40;;;;;;5017188;28;19928;-77
2022/03/03 10:04:14;;;;;;;;;;;10.60;62.20;;;;;;5000855;28;19921;-77
2022/03/03 10:06:40;;;;;;;;;;;10.80;59.40;;;;;;5016496;28;19978;-78
2022/03/03 10:09:06;;;;;;;;;;;10.80;58.30;;;;;;5016872;28;20295;-78
2022/03/03 10:11:31;;;;;;;;;;;10.80;58.20;;;;;;5000723;28;19929;-77
2022/03/03 10:13:57;;;;;;;;;;;10.90;57.30;;;;;;5000482;28;20341;-78
2022/03/03 10:16:29;;;;;;;;;;;11.00;60.20;;;;;;5016986;28;19920;-77
2022/03/03 10:19:03;;;;;;;;;;;11.30;59.60;;;;;;5016734;28;20056;-77
2022/03/03 10:21:30;;;;;;;;;;;11.50;56.30;;;;;;5016858;28;19968;-77
2022/03/03 10:23:56;;;;;;;;;;;11.80;58.10;;;;;;5017046;28;19944;-77
2022/03/03 10:26:32;;;;;;;;;;;12.30;55.70;;;;;;5017832;28;20368;-77
2022/03/03 10:28:59;;;;;;;;;;;12.30;54.70;;;;;;5016996;28;19921;-77
2022/03/03 10:31:25;;;;;;;;;;;12.60;54.30;;;;;;5000864;28;19921;-78
2022/03/03 10:33:51;;;;;;;;;;;12.60;53.10;;;;;;5000469;28;19921;-77
2022/03/03 10:36:19;;;;;;;;;;;12.80;52.30;;;;;;5000226;28;20008;-78
2022/03/03 10:38:48;;;;;;;;;;;12.90;54.70;;;;;;5017260;28;19929;-78
2022/03/03 10:41:33;;;;;;;;;;;13.50;56.20;;;;;;5017434;28;19921;-78
2022/03/03 10:44:01;;;;;;;;;;;14.00;55.20;;;;;;5016627;28;20008;-78
2022/03/03 10:46:27;;;;;;;;;;;14.70;54.70;;;;;;5015264;28;19921;-78
2022/03/03 10:48:53;;;;;;;;;;;14.80;50.90;;;;;;5015110;28;19975;-78
2022/03/03 10:51:21;;;;;;;;;;;14.60;50.00;;;;;;5015148;28;20303;-78
2022/03/03 10:53:46;;;;;;;;;;;14.60;50.20;;;;;;4998733;28;19928;-78
2022/03/03 10:56:17;;;;;;;;;;;14.80;51.30;;;;;;4998816;28;19921;-78
2022/03/03 10:58:43;;;;;;;;;;;15.20;50.70;;;;;;5015670;28;19921;-78
2022/03/03 11:01:09;;;;;;;;;;;15.60;50.70;;;;;;5015584;28;19921;-78
2022/03/03 11:03:35;;;;;;;;;;;15.70;48.20;;;;;;4999460;28;19928;-78
2022/03/03 11:06:03;;;;;;;;;;;15.80;48.30;;;;;;5015605;28;20360;-78
2022/03/03 11:08:29;;;;;;;;;;;16.10;49.90;;;;;;5016087;28;20354;-78
2022/03/03 11:10:55;;;;;;;;;;;16.10;43.80;;;;;;5015917;28;19921;-78
2022/03/03 11:13:21;;;;;;;;;;;15.80;45.10;;;;;;5016261;28;19921;-78
2022/03/03 11:15:48;;;;;;;;;;;15.80;46.60;;;;;;4999342;28;19921;-78
2022/03/03 11:18:18;;;;;;;;;;;15.90;48.00;;;;;;5016219;28;19922;-78
2022/03/03 11:20:48;;;;;;;;;;;16.10;46.00;;;;;;5016499;28;19929;-78
2022/03/03 11:23:14;;;;;;;;;;;16.00;45.50;;;;;;5016005;28;19948;-78
2022/03/03 11:25:40;;;;;;;;;;;16.10;46.80;;;;;;5016568;28;19921;-78
2022/03/03 11:28:09;;;;;;;;;;;16.40;48.50;;;;;;5016914;28;19921;-78
2022/03/03 11:30:40;;;;;;;;;;;16.70;42.50;;;;;;5016356;28;19944;-78
2022/03/03 11:33:31;;;;;;;;;;;16.10;42.00;;;;;;5016395;28;20340;-78
2022/03/03 11:35:58;;;;;;;;;;;15.70;45.60;;;;;;5016485;28;20405;-78
2022/03/03 11:38:44;;;;;;;;;;;15.90;45.60;;;;;;5001160;28;19921;-78
2022/03/03 11:41:23;;;;;;;;;;;16.20;46.20;;;;;;5016479;28;19979;-78
2022/03/03 11:43:57;;;;;;;;;;;16.60;44.70;;;;;;5016824;28;19921;-78
2022/03/03 11:46:42;;;;;;;;;;;17.10;43.50;;;;;;5017182;28;20359;-78
2022/03/03 11:49:11;;;;;;;;;;;16.90;44.70;;;;;;5019518;28;20368;-78
2022/03/03 11:51:37;;;;;;;;;;;16.50;42.50;;;;;;5020674;28;19932;-78
2022/03/03 11:54:09;;;;;;;;;;;16.10;44.20;;;;;;5004179;28;19929;-78
2022/03/03 11:56:35;;;;;;;;;;;16.00;43.70;;;;;;5020077;28;20394;-78
2022/03/03 11:59:11;;;;;;;;;;;15.80;43.60;;;;;;5037039;28;19947;-78
2022/03/03 12:01:53;;;;;;;;;;;15.60;45.70;;;;;;5020856;28;19994;-78
2022/03/03 12:04:20;;;;;;;;;;;15.60;43.50;;;;;;5019921;28;19927;-78
2022/03/03 12:06:48;;;;;;;;;;;15.40;44.10;;;;;;5036615;28;20389;-78
2022/03/03 12:09:26;;;;;;;;;;;15.30;42.30;;;;;;5004357;28;19921;-78
2022/03/03 12:12:16;;;;;;;;;;;15.00;42.90;;;;;;5019366;28;19928;-78
2022/03/03 12:14:48;;;;;;;;;;;14.90;42.70;;;;;;5019003;28;20311;-78
2022/03/03 12:17:42;;;;;;;;;;;14.80;43.20;;;;;;5020091;28;19929;-78
2022/03/03 12:20:35;;;;;;;;;;;15.00;46.30;;;;;;5019421;28;19925;-77
2022/03/03 12:23:10;;;;;;;;;;;15.60;43.50;;;;;;5019063;28;19921;-78
2022/03/03 12:25:55;;;;;;;;;;;15.80;41.80;;;;;;5035556;28;19922;-78
2022/03/03 12:28:20;;;;;;;;;;;15.30;41.10;;;;;;5019214;28;19957;-78
2022/03/03 12:30:47;;;;;;;;;;;14.90;41.20;;;;;;5019765;28;20008;-78
2022/03/03 12:33:33;;;;;;;;;;;15.00;42.20;;;;;;5018683;28;19921;-78
2022/03/03 12:36:06;;;;;;;;;;;15.20;42.90;;;;;;5018816;28;19925;-78
2022/03/03 12:38:35;;;;;;;;;;;15.20;42.40;;;;;;5019736;28;20430;-78
2022/03/03 12:41:01;;;;;;;;;;;15.30;42.50;;;;;;5019078;28;20433;-78
2022/03/03 12:43:36;;;;;;;;;;;15.10;42.80;;;;;;5018466;28;19921;-78
2022/03/03 12:46:04;;;;;;;;;;;15.00;43.20;;;;;;5018922;28;20020;-78
2022/03/03 12:48:30;;;;;;;;;;;15.00;43.50;;;;;;5002771;28;20008;-78
2022/03/03 12:51:06;;;;;;;;;;;15.10;43.10;;;;;;5019076;28;20066;-78
2022/03/03 12:53:36;;;;;;;;;;;15.30;43.50;;;;;;5019073;28;19928;-78
2022/03/03 12:56:04;;;;;;;;;;;15.30;43.10;;;;;;5018231;28;19920;-78
2022/03/03 12:58:31;;;;;;;;;;;15.20;43.70;;;;;;5018236;28;19929;-78
2022/03/03 13:00:56;;;;;;;;;;;15.10;45.20;;;;;;5035188;28;19971;-78
2022/03/03 13:03:30;;;;;;;;;;;15.20;44.40;;;;;;5002191;28;19928;-78
2022/03/03 13:06:03;;;;;;;;;;;15.40;43.80;;;;;;5018246;28;19928;-77
2022/03/03 13:08:30;;;;;;;;;;;15.20;45.30;;;;;;5018759;28;20030;-78
2022/03/03 13:11:04;;;;;;;;;;;15.70;46.80;;;;;;5002303;28;19921;-78
2022/03/03 13:13:30;;;;;;;;;;;16.30;43.60;;;;;;5001135;28;19931;-78
2022/03/03 13:16:31;;;;;;;;;;;16.60;44.50;;;;;;5035858;28;19975;-78
2022/03/03 13:19:00;;;;;;;;;;;16.90;43.60;;;;;;4939180;29;20001;-78
2022/03/03 13:21:29;;;;;;;;;;;17.00;42.30;;;;;;5002998;28;19940;-78
2022/03/03 13:23:56;;;;;;;;;;;16.60;42.10;;;;;;5017623;28;19921;-78
2022/03/03 13:26:23;;;;;;;;;;;16.00;42.80;;;;;;5017358;28;19921;-78
2022/03/03 13:28:51;;;;;;;;;;;15.60;43.00;;;;;;5017551;28;19921;-78
2022/03/03 13:31:18;;;;;;;;;;;15.70;44.30;;;;;;5017372;28;19921;-78
2022/03/03 13:33:44;;;;;;;;;;;15.60;42.80;;;;;;5018075;28;19929;-78
2022/03/03 13:36:10;;;;;;;;;;;15.30;43.00;;;;;;5035500;28;20307;-78
2022/03/03 13:38:36;;;;;;;;;;;15.40;43.90;;;;;;5016262;28;20405;-77
2022/03/03 13:41:02;;;;;;;;;;;15.70;45.40;;;;;;5016638;28;19921;-77
2022/03/03 13:43:29;;;;;;;;;;;16.30;44.40;;;;;;5016609;28;20287;-78
2022/03/03 13:45:54;;;;;;;;;;;16.70;43.10;;;;;;4999833;28;20438;-78
2022/03/03 13:48:20;;;;;;;;;;;16.30;43.50;;;;;;5016544;28;19987;-78
2022/03/03 13:51:00;;;;;;;;;;;15.70;44.40;;;;;;5015853;28;19921;-78
2022/03/03 13:53:27;;;;;;;;;;;15.80;44.50;;;;;;5016178;28;19928;-78
2022/03/03 13:55:57;;;;;;;;;;;15.70;44.00;;;;;;5016071;28;20375;-78
2022/03/03 13:58:23;;;;;;;;;;;15.50;43.40;;;;;;5015751;28;19929;-78
2022/03/03 14:00:49;;;;;;;;;;;15.60;43.80;;;;;;5015546;28;19935;-77
2022/03/03 14:03:16;;;;;;;;;;;15.70;46.00;;;;;;4999528;28;19921;-78
2022/03/03 14:05:53;;;;;;;;;;;16.10;44.00;;;;;;5016805;28;19988;-78
2022/03/03 14:08:24;;;;;;;;;;;15.80;44.40;;;;;;5017132;28;20295;-78
2022/03/03 14:10:57;;;;;;;;;;;15.70;45.10;;;;;;5016420;28;19929;-78
2022/03/03 14:13:24;;;;;;;;;;;15.50;45.00;;;;;;5016996;28;19921;-78
2022/03/03 14:15:51;;;;;;;;;;;15.20;44.90;;;;;;5017262;28;20028;-77
2022/03/03 14:18:17;;;;;;;;;;;14.80;44.90;;;;;;5018118;28;19928;-78
2022/03/03 14:20:44;;;;;;;;;;;14.40;46.00;;;;;;5017650;28;19931;-77
2022/03/03 14:23:10;;;;;;;;;;;14.20;46.60;;;;;;5017792;28;19980;-77